createdAt,value
2019-03-10T00:01:17.054Z,70.71
2019-03-10T00:03:46.321Z,70.02
2019-03-10T00:06:15.487Z,70.92
2019-03-10T00:08:44.971Z,70.83
2019-03-10T00:11:14.307Z,70.86
2019-03-10T00:13:43.734Z,70.75
2019-03-10T00:16:13.038Z,70.82
2019-03-10T00:18:42.219Z,70.49
2019-03-10T00:21:13.542Z,70.47
2019-03-10T00:23:43.620Z,70.50
2019-03-10T00:26:15.603Z,69.31
2019-03-10T00:28:44.771Z,69.39
2019-03-10T00:31:19.161Z,69.94
2019-03-10T00:33:50.456Z,69.98
2019-03-10T00:36:19.807Z,69.07
2019-03-10T00:39:09.735Z,70.44
2019-03-10T00:42:03.728Z,68.67
2019-03-10T00:45:09.210Z,69.96
2019-03-10T00:48:17.083Z,70.08
2019-03-10T00:51:26.620Z,70.46
2019-03-10T00:53:55.922Z,70.72
2019-03-10T00:56:25.182Z,70.93
2019-03-10T00:58:54.497Z,70.84
2019-03-10T01:01:23.666Z,71.31
2019-03-10T01:03:53.182Z,72.04
2019-03-10T01:06:22.485Z,71.52
2019-03-10T01:11:26.296Z,72.13
2019-03-10T01:13:55.722Z,71.71
2019-03-10T01:16:25.229Z,71.62
2019-03-10T01:32:00.947Z,70.62
2019-03-10T01:34:53.032Z,71.65
2019-03-10T01:44:55.455Z,72.02
2019-03-10T01:47:24.976Z,72.12
2019-03-10T01:49:54.148Z,72.19
2019-03-10T01:52:23.589Z,72.25
2019-03-10T01:55:05.441Z,71.09
2019-03-10T02:01:50.101Z,71.56
2019-03-10T02:04:31.363Z,71.60
2019-03-10T02:07:00.879Z,71.78
2019-03-10T02:09:30.341Z,71.83
2019-03-10T02:11:59.813Z,71.80
2019-03-10T02:14:29.325Z,72.00
2019-03-10T02:16:58.789Z,72.33
2019-03-10T02:20:41.655Z,72.42
2019-03-10T02:23:11.228Z,72.36
2019-03-10T02:25:40.566Z,72.35
2019-03-10T02:28:10.000Z,72.42
2019-03-10T02:30:39.414Z,72.49
2019-03-10T02:33:08.891Z,72.57
2019-03-10T02:35:38.373Z,72.30
2019-03-10T02:38:07.895Z,72.70
2019-03-10T02:51:52.356Z,73.33
2019-03-10T02:54:21.735Z,73.01
2019-03-10T02:56:51.108Z,73.35
2019-03-10T02:59:20.667Z,73.16
2019-03-10T03:01:50.331Z,72.93
2019-03-10T03:04:21.089Z,72.57
2019-03-10T03:06:50.536Z,72.27
2019-03-10T03:09:24.342Z,72.60
2019-03-10T03:11:59.315Z,72.22
2019-03-10T03:14:32.293Z,72.63
2019-03-10T03:17:04.147Z,71.81
2019-03-10T03:19:36.579Z,70.25
2019-03-10T03:22:11.211Z,71.88
2019-03-10T03:24:44.129Z,71.71
2019-03-10T03:27:13.067Z,72.22
2019-03-10T03:32:46.788Z,72.29
2019-03-10T03:36:08.624Z,72.60
2019-03-10T03:38:49.799Z,72.73
2019-03-10T03:41:19.807Z,73.37
2019-03-10T03:43:51.272Z,73.84
2019-03-10T03:46:19.824Z,74.23
2019-03-10T03:48:49.212Z,75.13
2019-03-10T03:51:18.669Z,75.74
2019-03-10T03:53:48.120Z,76.49
2019-03-10T03:56:17.441Z,76.80
2019-03-10T03:58:46.799Z,77.79
2019-03-10T04:01:28.692Z,78.15
2019-03-10T04:03:58.085Z,77.01
2019-03-10T04:06:27.751Z,77.92
2019-03-10T04:08:57.450Z,78.00
2019-03-10T04:11:27.334Z,77.87
2019-03-10T04:13:57.074Z,79.24
2019-03-10T04:16:26.595Z,79.68
2019-03-10T04:18:56.111Z,79.94
2019-03-10T04:21:25.820Z,80.42
2019-03-10T04:23:55.594Z,80.31
2019-03-10T04:26:27.916Z,80.54
2019-03-10T04:28:57.628Z,80.67
2019-03-10T04:31:27.701Z,81.13
2019-03-10T04:33:57.772Z,80.80
2019-03-10T04:36:27.880Z,81.26
2019-03-10T04:38:57.982Z,81.64
2019-03-10T04:41:28.332Z,80.55
2019-03-10T04:43:58.521Z,80.39
2019-03-10T04:46:28.581Z,81.63
2019-03-10T04:56:07.541Z,82.38
2019-03-10T04:58:40.567Z,81.86
2019-03-10T05:01:09.715Z,82.34
2019-03-10T05:11:47.834Z,82.60
2019-03-10T05:18:26.192Z,85.12
2019-03-10T05:20:55.248Z,85.52
2019-03-10T05:23:28.791Z,85.12
2019-03-10T05:30:47.832Z,84.73
2019-03-10T05:33:17.278Z,85.57
2019-03-10T05:39:46.185Z,86.00
2019-03-10T05:42:18.809Z,85.56
2019-03-10T05:44:48.020Z,85.97
2019-03-10T05:47:17.294Z,86.32
2019-03-10T05:49:46.313Z,86.20
2019-03-10T05:52:15.418Z,86.78
2019-03-10T05:54:44.611Z,86.95
2019-03-10T05:57:13.575Z,87.39
2019-03-10T06:00:14.159Z,88.07
2019-03-10T06:06:49.841Z,88.35
2019-03-10T06:09:18.895Z,88.76
2019-03-10T06:16:44.557Z,87.34
2019-03-10T06:19:14.659Z,88.12
2019-03-10T06:21:43.795Z,87.51
2019-03-10T06:24:12.966Z,87.56
2019-03-10T06:31:15.782Z,87.64
2019-03-10T06:33:45.410Z,87.45
2019-03-10T06:50:02.275Z,87.50
2019-03-10T07:04:42.269Z,86.97
2019-03-10T07:08:45.546Z,86.16
2019-03-10T07:12:45.206Z,86.24
2019-03-10T07:15:20.196Z,86.88
2019-03-10T07:17:50.918Z,86.96
2019-03-10T07:20:20.838Z,86.64
2019-03-10T07:22:51.090Z,86.56
2019-03-10T07:25:24.678Z,86.19
2019-03-10T07:28:09.244Z,85.92
2019-03-10T07:31:01.077Z,86.52
2019-03-10T07:34:01.500Z,86.55
2019-03-10T07:36:50.354Z,86.85
2019-03-10T07:39:45.414Z,86.59
2019-03-10T07:42:35.410Z,87.00
2019-03-10T07:45:19.472Z,86.83
2019-03-10T07:48:11.498Z,86.16
2019-03-10T07:50:52.409Z,85.86
2019-03-10T07:53:50.265Z,86.34
2019-03-10T07:56:47.285Z,86.19
2019-03-10T07:59:34.792Z,85.93
2019-03-10T08:02:29.842Z,85.81
2019-03-10T08:05:33.602Z,85.70
2019-03-10T08:08:20.568Z,85.56
2019-03-10T08:11:03.261Z,85.99
2019-03-10T08:14:06.557Z,85.51
2019-03-10T08:17:06.745Z,85.45
2019-03-10T08:19:46.698Z,84.57
2019-03-10T08:22:33.732Z,83.54
2019-03-10T08:25:20.607Z,82.78
2019-03-10T08:28:21.030Z,83.78
2019-03-10T08:31:06.378Z,83.94
2019-03-10T08:34:09.824Z,83.49
2019-03-10T08:36:51.770Z,83.75
2019-03-10T08:39:36.854Z,83.48
2019-03-10T08:42:26.128Z,83.28
2019-03-10T08:45:17.025Z,83.39
2019-03-10T08:48:02.658Z,82.88
2019-03-10T08:50:40.240Z,83.96
2019-03-10T08:53:15.361Z,83.87
2019-03-10T08:56:06.757Z,82.45
2019-03-10T08:58:53.557Z,83.08
2019-03-10T09:01:46.980Z,83.49
2019-03-10T09:04:35.239Z,84.73
2019-03-10T09:07:22.563Z,83.28
2019-03-10T09:10:07.404Z,83.04
2019-03-10T09:12:51.453Z,83.62
2019-03-10T09:15:42.347Z,83.71
2019-03-10T09:18:30.625Z,84.13
2019-03-10T09:21:22.148Z,84.14
2019-03-10T09:24:08.866Z,83.87
2019-03-10T09:27:06.291Z,84.54
2019-03-10T09:29:48.439Z,84.82
2019-03-10T09:32:39.163Z,84.04
2019-03-10T09:35:30.506Z,83.87
2019-03-10T09:38:05.974Z,83.90
2019-03-10T09:40:53.388Z,83.32
2019-03-10T09:43:30.212Z,84.07
2019-03-10T09:46:18.588Z,84.47
2019-03-10T09:48:55.111Z,84.54
2019-03-10T09:52:12.819Z,85.07
2019-03-10T09:55:01.085Z,84.97
2019-03-10T09:57:54.197Z,84.72
2019-03-10T10:21:33.875Z,85.56
2019-03-10T10:27:39.975Z,86.72
2019-03-10T10:30:28.479Z,86.64
2019-03-10T10:33:17.767Z,85.87
2019-03-10T10:36:04.815Z,85.80
2019-03-10T10:38:53.103Z,85.95
2019-03-10T10:41:40.212Z,86.04
2019-03-10T10:44:37.914Z,86.62
2019-03-10T10:47:35.340Z,87.54
2019-03-10T10:50:15.047Z,87.01
2019-03-10T10:53:06.207Z,86.83
2019-03-10T10:55:55.776Z,87.04
2019-03-10T11:02:19.624Z,87.22
2019-03-10T11:05:05.462Z,86.85
2019-03-10T11:07:44.536Z,86.51
2019-03-10T11:10:31.371Z,86.30
2019-03-10T11:16:45.419Z,86.08
2019-03-10T11:19:21.261Z,85.95
2019-03-10T11:22:13.788Z,85.92
2019-03-10T11:24:56.734Z,85.84
2019-03-10T11:27:33.425Z,86.36
2019-03-10T11:30:27.391Z,86.13
2019-03-10T11:33:14.006Z,86.54
2019-03-10T11:35:54.160Z,87.45
2019-03-10T11:49:50.564Z,90.13
2019-03-10T11:52:37.866Z,90.42
2019-03-10T12:07:20.691Z,91.78
2019-03-10T12:09:50.670Z,91.37
2019-03-10T12:12:20.986Z,90.94
2019-03-10T12:14:50.990Z,90.72
2019-03-10T12:17:20.293Z,91.05
2019-03-10T12:19:49.597Z,91.06
2019-03-10T12:22:18.869Z,91.08
2019-03-10T12:24:48.209Z,90.22
2019-03-10T12:27:17.628Z,90.14
2019-03-10T12:29:47.045Z,90.04
2019-03-10T12:32:16.594Z,90.16
2019-03-10T12:34:46.010Z,90.20
2019-03-10T12:37:15.291Z,90.70
2019-03-10T12:39:44.855Z,90.60
2019-03-10T12:42:14.284Z,91.22
2019-03-10T12:44:43.682Z,91.44
2019-03-10T12:47:13.057Z,91.94
2019-03-10T12:49:42.485Z,91.78
2019-03-10T12:52:11.867Z,92.04
2019-03-10T12:54:41.200Z,91.91
2019-03-10T12:57:10.469Z,91.66
2019-03-10T13:01:20.277Z,91.61
2019-03-10T13:07:49.363Z,84.76
2019-03-10T13:10:18.855Z,84.31
2019-03-10T13:12:48.186Z,81.86
2019-03-10T13:15:22.099Z,81.93
2019-03-10T13:17:50.293Z,81.31
2019-03-10T13:20:28.228Z,81.22
2019-03-10T13:22:50.598Z,81.41
2019-03-10T13:25:20.688Z,80.97
2019-03-10T13:27:50.136Z,81.02
2019-03-10T13:30:19.638Z,80.77
2019-03-10T13:32:49.102Z,80.56
2019-03-10T13:35:18.707Z,81.51
2019-03-10T13:37:48.147Z,81.12
2019-03-10T13:40:17.604Z,81.48
2019-03-10T13:42:46.964Z,81.34
2019-03-10T13:45:16.406Z,81.59
2019-03-10T13:47:45.927Z,82.30
2019-03-10T13:50:15.077Z,82.95
2019-03-10T13:52:44.500Z,82.38
2019-03-10T13:55:14.065Z,81.72
2019-03-10T13:57:43.622Z,81.18
2019-03-10T14:00:13.725Z,82.34
2019-03-10T14:02:43.074Z,81.76
2019-03-10T14:05:12.535Z,81.87
2019-03-10T14:07:42.085Z,81.78
2019-03-10T14:10:11.347Z,81.78
2019-03-10T14:12:40.972Z,81.59
2019-03-10T14:15:10.709Z,81.60
2019-03-10T14:17:40.285Z,81.94
2019-03-10T14:20:10.226Z,81.58
2019-03-10T14:22:39.919Z,81.59
2019-03-10T14:25:09.805Z,81.51
2019-03-10T14:27:39.797Z,81.48
2019-03-10T14:31:25.033Z,81.27
2019-03-10T14:36:13.349Z,80.41
2019-03-10T15:03:30.419Z,78.35
2019-03-10T15:06:01.436Z,78.73
2019-03-10T15:08:30.565Z,79.01
2019-03-10T15:10:59.682Z,79.52
2019-03-10T15:13:28.786Z,79.73
2019-03-10T15:15:57.948Z,80.48
2019-03-10T15:18:27.067Z,81.14
2019-03-10T15:20:56.222Z,80.58
2019-03-10T15:24:59.233Z,81.67
2019-03-10T15:39:58.630Z,82.30
2019-03-10T15:42:28.079Z,81.21
2019-03-10T15:44:57.198Z,81.66
2019-03-10T15:52:32.580Z,82.98
2019-03-10T16:03:31.381Z,83.45
2019-03-10T16:13:58.487Z,83.88
2019-03-10T16:28:36.847Z,83.33
2019-03-10T16:31:08.957Z,84.26
2019-03-10T16:35:56.039Z,84.40
2019-03-10T16:37:37.883Z,83.96
2019-03-10T16:40:10.940Z,84.00
2019-03-10T16:44:29.268Z,84.02
2019-03-10T16:55:30.450Z,83.03
2019-03-10T17:19:11.656Z,83.64
2019-03-10T17:30:59.489Z,84.18
2019-03-10T17:47:53.508Z,84.39
2019-03-10T18:01:35.063Z,83.44
2019-03-10T18:21:05.079Z,82.70
2019-03-10T18:25:11.061Z,82.68
2019-03-10T18:31:44.372Z,82.67
2019-03-10T18:34:17.320Z,82.95
2019-03-10T18:36:46.569Z,83.01
2019-03-10T18:39:15.898Z,83.80
2019-03-10T18:51:39.262Z,84.73
2019-03-10T18:54:34.476Z,85.17
2019-03-10T18:57:21.210Z,85.47
2019-03-10T19:12:49.546Z,85.81
2019-03-10T19:15:18.799Z,86.10
2019-03-10T19:17:48.643Z,86.61
2019-03-10T19:20:18.664Z,86.87
2019-03-10T19:22:48.123Z,87.19
2019-03-10T19:25:17.318Z,86.83
2019-03-10T19:28:11.224Z,85.65
2019-03-10T19:34:37.341Z,85.77
2019-03-10T19:41:04.331Z,85.80
2019-03-10T19:44:33.866Z,85.43
2019-03-10T19:50:51.513Z,84.87
2019-03-10T19:53:21.196Z,85.18
2019-03-10T19:55:50.711Z,85.00
2019-03-10T19:58:20.178Z,85.32
2019-03-10T20:00:51.159Z,85.42
2019-03-10T20:03:20.442Z,85.39
2019-03-10T20:13:18.285Z,84.54
2019-03-10T20:15:47.613Z,84.48
2019-03-10T20:26:10.429Z,84.32
2019-03-10T20:28:40.722Z,84.12
2019-03-10T20:31:09.942Z,84.67
2019-03-10T20:33:39.225Z,84.08
2019-03-10T20:36:08.385Z,84.64
2019-03-10T20:38:37.620Z,84.44
2019-03-10T20:41:07.233Z,84.57
2019-03-10T20:44:17.199Z,84.45
2019-03-10T20:46:46.990Z,84.24
2019-03-10T20:49:16.562Z,84.55
2019-03-10T20:51:46.128Z,84.53
2019-03-10T20:54:15.463Z,84.42
2019-03-10T20:56:44.767Z,84.21
2019-03-10T20:59:14.754Z,83.64
2019-03-10T21:01:44.110Z,84.34
2019-03-10T21:04:13.340Z,83.93
2019-03-10T21:06:42.566Z,83.94
2019-03-10T21:09:11.857Z,83.82
2019-03-10T21:11:41.205Z,83.77
2019-03-10T21:14:10.703Z,83.92
2019-03-10T21:16:40.040Z,83.98
2019-03-10T21:19:09.482Z,84.18
2019-03-10T21:21:38.831Z,84.24
2019-03-10T21:40:43.516Z,83.15
2019-03-10T21:43:46.619Z,83.36
2019-03-10T21:51:57.533Z,83.23
2019-03-10T21:54:36.900Z,82.94
2019-03-10T22:04:32.751Z,84.20
2019-03-10T22:10:59.244Z,84.60
2019-03-10T22:13:28.605Z,84.84
2019-03-10T22:15:57.963Z,85.27
2019-03-10T22:18:27.217Z,85.13
2019-03-10T22:22:30.036Z,85.07
2019-03-10T22:24:59.214Z,84.81
2019-03-10T22:27:28.482Z,84.69
2019-03-10T22:29:57.943Z,83.66
2019-03-10T22:32:26.910Z,84.23
2019-03-10T22:34:56.085Z,84.02
2019-03-10T22:37:25.369Z,83.95
2019-03-10T22:39:54.561Z,83.91
2019-03-10T22:42:23.608Z,83.66
2019-03-10T22:44:52.730Z,83.59
2019-03-10T22:55:33.563Z,83.43
2019-03-10T22:59:13.333Z,83.11
2019-03-10T23:14:15.531Z,77.87
2019-03-10T23:16:45.141Z,77.98
2019-03-10T23:19:14.275Z,77.94
2019-03-10T23:27:12.915Z,77.95
2019-03-10T23:41:56.620Z,77.23
2019-03-10T23:44:48.959Z,77.23
2019-03-10T23:47:18.507Z,76.60
2019-03-10T23:49:47.753Z,78.40
2019-03-10T23:53:11.808Z,77.74
